Ek-star — LAMT5 — position and weather

sailwx.info

Track history (hours):
 
Tides and Currents Weather Stations Pressure Air Temp Water Temp Dewpoint Dewpoint Depression Visibility Wind Speed Wind Dir Waves Ship Positions

Ek-star

Last reported at 2014-Sep-03 04:33 UTC. Time now 2014-Sep-03 04:37 UTC.
Position N 57°29' E 011°39'.

Length 135 m; draft 6.3 m.

MMSI: 257433000.

Date/timePositionNaut miles runAvg speedWind from/ knotsBaromVisibWave heightAir tempDewpointWater temp
2014-Sep-03 04:33N 57°29' E 011°39'4 4.2
2014-Sep-03 03:32N 57°33' E 011°40'0 0.0
2014-Sep-03 02:32N 57°33' E 011°40'0 0.0
2014-Sep-03 01:29N 57°33' E 011°40'0 0.0
2014-Sep-03 00:32N 57°33' E 011°40'0 0.0
2014-Sep-02 23:32N 57°33' E 011°40'0 0.0
2014-Sep-02 22:32N 57°33' E 011°40'0 0.0
2014-Sep-02 21:32N 57°33' E 011°40'0 0.0
2014-Sep-02 20:32N 57°33' E 011°40'0 0.0
2014-Sep-02 19:32N 57°33' E 011°40'0 0.0
2014-Sep-02 18:32N 57°33' E 011°40'0 0.0
2014-Sep-02 17:32N 57°33' E 011°40'0 0.0
2014-Sep-02 16:32N 57°33' E 011°40'0 0.0
2014-Sep-02 15:32N 57°33' E 011°40'0 0.0
2014-Sep-02 14:32N 57°33' E 011°40'0 0.0
2014-Sep-02 13:32N 57°33' E 011°40'1 1.3
2014-Sep-02 12:34N 57°34' E 011°39'10 9.6
2014-Sep-02 11:31N 57°41' E 011°53'0 0.0
2014-Sep-02 10:31N 57°41' E 011°53'0 0.0
2014-Sep-02 09:31N 57°41' E 011°53'0 0.0
2014-Sep-02 08:31N 57°41' E 011°53'0 0.0
2014-Sep-02 07:31N 57°41' E 011°53'0 0.0
2014-Sep-02 06:31N 57°41' E 011°53'0 0.0
2014-Sep-02 05:31N 57°41' E 011°53'0 0.0
2014-Sep-02 04:31N 57°41' E 011°53'0 0.0
2014-Sep-02 03:31N 57°41' E 011°53'0 0.0
2014-Sep-02 02:31N 57°41' E 011°53'0 0.0
2014-Sep-02 01:31N 57°41' E 011°53'0 0.0
2014-Sep-02 00:31N 57°41' E 011°53'0 0.0
2014-Sep-01 23:31N 57°41' E 011°53'0 0.0
2014-Sep-01 22:31N 57°41' E 011°53'0 0.0
2014-Sep-01 21:31N 57°41' E 011°53'0 0.0
2014-Sep-01 20:31N 57°41' E 011°53'0 0.0
2014-Sep-01 19:31N 57°41' E 011°53'0 0.0
2014-Sep-01 18:31N 57°41' E 011°53'0 0.0
2014-Sep-01 17:31N 57°41' E 011°53'0 0.0
2014-Sep-01 16:31N 57°41' E 011°53'0 0.0
2014-Sep-01 15:31N 57°41' E 011°53'0 0.0
2014-Sep-01 14:31N 57°41' E 011°53'0 0.0
2014-Sep-01 13:31N 57°41' E 011°53'0 0.0
2014-Sep-01 12:31N 57°41' E 011°53'0 0.0
2014-Sep-01 11:31N 57°41' E 011°53'0 0.0
2014-Sep-01 10:31N 57°41' E 011°53'0 0.0
2014-Sep-01 09:31N 57°41' E 011°53'0 0.0
2014-Sep-01 08:31N 57°41' E 011°53'0 0.0
2014-Sep-01 07:31N 57°41' E 011°53'0 0.0
2014-Sep-01 06:31N 57°41' E 011°53'0 0.0
2014-Sep-01 05:31N 57°41' E 011°53'0 0.0
2014-Sep-01 04:31N 57°41' E 011°53'0 0.0
2014-Sep-01 03:31N 57°41' E 011°53'0 0.0
2014-Sep-01 02:34N 57°41' E 011°53'8 8.3
2014-Sep-01 01:34N 57°37' E 011°40'1211.9
2014-Sep-01 00:33N 57°25' E 011°38'17311.3
2014-Aug-31 09:13N 54°31' E 011°27'914.1
2014-Aug-31 08:34N 54°28' E 011°42'1313.2
2014-Aug-31 07:33N 54°26' E 012°05'1211.7
2014-Aug-31 06:30N 54°37' E 012°16'1613.8
2014-Aug-31 05:22N 54°46' E 012°38'1612.9
2014-Aug-31 04:10N 54°52' E 013°03'1013.1
2014-Aug-31 03:26N 54°55' E 013°19'1213.2
2014-Aug-31 02:33N 54°59' E 013°38'1313.5
2014-Aug-31 01:33N 55°03' E 014°00'1212.3
2014-Aug-31 00:33N 55°12' E 014°15'1313.0
2014-Aug-30 23:33N 55°22' E 014°29'1313.0
2014-Aug-30 22:33N 55°30' E 014°47'1313.2
2014-Aug-30 21:33N 55°36' E 015°08'36412.9
2014-Aug-29 17:22N 59°39' E 023°34'1012.9
2014-Aug-29 16:33N 59°42' E 023°54'1312.8
2014-Aug-29 15:31N 59°46' E 024°20'  
2014-Aug-27 09:23N 59°43' E 024°27'1513.8
2014-Aug-27 08:18N 59°38' E 023°59'1114.2
2014-Aug-27 07:33N 59°35' E 023°39'16411.7
2014-Aug-26 17:31N 59°22' E 018°17'4 0.8
2014-Aug-26 12:12N 59°19' E 018°10'0 0.0
2014-Aug-25 20:26N 59°19' E 018°10'117 9.0
2014-Aug-25 07:20N 57°23' E 017°45'1012.9
2014-Aug-25 06:33N 57°13' E 017°38'8213.0
2014-Aug-25 00:17N 55°60' E 016°33'1013.7
2014-Aug-24 23:34N 55°55' E 016°17'6613.0
2014-Aug-24 18:28N 55°22' E 014°36'1513.1
2014-Aug-24 17:18N 55°10' E 014°20'3512.8
2014-Aug-24 14:33N 54°53' E 013°26'3012.6
2014-Aug-24 12:10N 54°42' E 012°37'913.0
2014-Aug-24 11:28N 54°37' E 012°24'1112.5
2014-Aug-24 10:33N 54°27' E 012°14'1312.5
2014-Aug-24 09:33N 54°25' E 011°53'  
Track history (hours):
 
Tides and Currents Weather Stations Pressure Air Temp Water Temp Dewpoint Dewpoint Depression Visibility Wind Speed Wind Dir Waves Ship Positions

Ek-star

Last reported at 2014-Sep-03 04:33 UTC. Time now 2014-Sep-03 04:37 UTC.
Position N 57°29' E 011°39'.

Length 135 m; draft 6.3 m.

MMSI: 257433000.

Date/timePositionNaut miles runAvg speedWind from/ knotsBaromVisibWave heightAir tempDewpointWater temp
2014-Sep-03 04:33N 57°29' E 011°39'4 4.2
2014-Sep-03 03:32N 57°33' E 011°40'0 0.0
2014-Sep-03 02:32N 57°33' E 011°40'0 0.0
2014-Sep-03 01:29N 57°33' E 011°40'0 0.0
2014-Sep-03 00:32N 57°33' E 011°40'0 0.0
2014-Sep-02 23:32N 57°33' E 011°40'0 0.0
2014-Sep-02 22:32N 57°33' E 011°40'0 0.0
2014-Sep-02 21:32N 57°33' E 011°40'0 0.0
2014-Sep-02 20:32N 57°33' E 011°40'0 0.0
2014-Sep-02 19:32N 57°33' E 011°40'0 0.0
2014-Sep-02 18:32N 57°33' E 011°40'0 0.0
2014-Sep-02 17:32N 57°33' E 011°40'0 0.0
2014-Sep-02 16:32N 57°33' E 011°40'0 0.0
2014-Sep-02 15:32N 57°33' E 011°40'0 0.0
2014-Sep-02 14:32N 57°33' E 011°40'0 0.0
2014-Sep-02 13:32N 57°33' E 011°40'1 1.3
2014-Sep-02 12:34N 57°34' E 011°39'10 9.6
2014-Sep-02 11:31N 57°41' E 011°53'0 0.0
2014-Sep-02 10:31N 57°41' E 011°53'0 0.0
2014-Sep-02 09:31N 57°41' E 011°53'0 0.0
2014-Sep-02 08:31N 57°41' E 011°53'0 0.0
2014-Sep-02 07:31N 57°41' E 011°53'0 0.0
2014-Sep-02 06:31N 57°41' E 011°53'0 0.0
2014-Sep-02 05:31N 57°41' E 011°53'0 0.0
2014-Sep-02 04:31N 57°41' E 011°53'0 0.0
2014-Sep-02 03:31N 57°41' E 011°53'0 0.0
2014-Sep-02 02:31N 57°41' E 011°53'0 0.0
2014-Sep-02 01:31N 57°41' E 011°53'0 0.0
2014-Sep-02 00:31N 57°41' E 011°53'0 0.0
2014-Sep-01 23:31N 57°41' E 011°53'0 0.0
2014-Sep-01 22:31N 57°41' E 011°53'0 0.0
2014-Sep-01 21:31N 57°41' E 011°53'0 0.0
2014-Sep-01 20:31N 57°41' E 011°53'0 0.0
2014-Sep-01 19:31N 57°41' E 011°53'0 0.0
2014-Sep-01 18:31N 57°41' E 011°53'0 0.0
2014-Sep-01 17:31N 57°41' E 011°53'0 0.0
2014-Sep-01 16:31N 57°41' E 011°53'0 0.0
2014-Sep-01 15:31N 57°41' E 011°53'0 0.0
2014-Sep-01 14:31N 57°41' E 011°53'0 0.0
2014-Sep-01 13:31N 57°41' E 011°53'0 0.0
2014-Sep-01 12:31N 57°41' E 011°53'0 0.0
2014-Sep-01 11:31N 57°41' E 011°53'0 0.0
2014-Sep-01 10:31N 57°41' E 011°53'0 0.0
2014-Sep-01 09:31N 57°41' E 011°53'0 0.0
2014-Sep-01 08:31N 57°41' E 011°53'0 0.0
2014-Sep-01 07:31N 57°41' E 011°53'0 0.0
2014-Sep-01 06:31N 57°41' E 011°53'0 0.0
2014-Sep-01 05:31N 57°41' E 011°53'0 0.0
2014-Sep-01 04:31N 57°41' E 011°53'0 0.0
2014-Sep-01 03:31N 57°41' E 011°53'0 0.0
2014-Sep-01 02:34N 57°41' E 011°53'8 8.3
2014-Sep-01 01:34N 57°37' E 011°40'1211.9
2014-Sep-01 00:33N 57°25' E 011°38'17311.3
2014-Aug-31 09:13N 54°31' E 011°27'914.1
2014-Aug-31 08:34N 54°28' E 011°42'1313.2
2014-Aug-31 07:33N 54°26' E 012°05'1211.7
2014-Aug-31 06:30N 54°37' E 012°16'1613.8
2014-Aug-31 05:22N 54°46' E 012°38'1612.9
2014-Aug-31 04:10N 54°52' E 013°03'1013.1
2014-Aug-31 03:26N 54°55' E 013°19'1213.2
2014-Aug-31 02:33N 54°59' E 013°38'1313.5
2014-Aug-31 01:33N 55°03' E 014°00'1212.3
2014-Aug-31 00:33N 55°12' E 014°15'1313.0
2014-Aug-30 23:33N 55°22' E 014°29'1313.0
2014-Aug-30 22:33N 55°30' E 014°47'1313.2
2014-Aug-30 21:33N 55°36' E 015°08'36412.9
2014-Aug-29 17:22N 59°39' E 023°34'1012.9
2014-Aug-29 16:33N 59°42' E 023°54'1312.8
2014-Aug-29 15:31N 59°46' E 024°20'  
2014-Aug-27 09:23N 59°43' E 024°27'1513.8
2014-Aug-27 08:18N 59°38' E 023°59'1114.2
2014-Aug-27 07:33N 59°35' E 023°39'16411.7
2014-Aug-26 17:31N 59°22' E 018°17'4 0.8
2014-Aug-26 12:12N 59°19' E 018°10'0 0.0
2014-Aug-25 20:26N 59°19' E 018°10'117 9.0
2014-Aug-25 07:20N 57°23' E 017°45'1012.9
2014-Aug-25 06:33N 57°13' E 017°38'8213.0
2014-Aug-25 00:17N 55°60' E 016°33'1013.7
2014-Aug-24 23:34N 55°55' E 016°17'6613.0
2014-Aug-24 18:28N 55°22' E 014°36'1513.1
2014-Aug-24 17:18N 55°10' E 014°20'3512.8
2014-Aug-24 14:33N 54°53' E 013°26'3012.6
2014-Aug-24 12:10N 54°42' E 012°37'913.0
2014-Aug-24 11:28N 54°37' E 012°24'1112.5
2014-Aug-24 10:33N 54°27' E 012°14'1312.5
2014-Aug-24 09:33N 54°25' E 011°53'  

Dump ship's entire track history